createdAt,value
2023-02-10T00:01:34.737Z,-5.40
2023-02-10T00:04:01.770Z,-5.40
2023-02-10T00:06:28.982Z,-5.40
2023-02-10T00:08:59.796Z,-5.40
2023-02-10T00:11:47.067Z,-5.40
2023-02-10T00:14:18.599Z,-5.70
2023-02-10T00:16:46.019Z,-5.50
2023-02-10T00:19:12.849Z,-5.60
2023-02-10T00:21:39.624Z,-5.60
2023-02-10T00:24:06.604Z,-5.60
2023-02-10T00:26:33.314Z,-5.60
2023-02-10T00:29:00.337Z,-5.70
2023-02-10T00:31:27.177Z,-5.70
2023-02-10T00:33:54.186Z,-5.70
2023-02-10T00:36:22.625Z,-5.70
2023-02-10T00:38:49.433Z,-5.80
2023-02-10T00:41:19.644Z,-5.80
2023-02-10T00:43:46.522Z,-5.80
2023-02-10T00:46:16.770Z,-5.80
2023-02-10T00:48:44.745Z,-5.80
2023-02-10T00:51:13.651Z,-5.90
2023-02-10T00:53:41.125Z,-6.00
2023-02-10T00:56:08.865Z,-6.00
2023-02-10T00:58:35.963Z,-6.00
2023-02-10T01:01:03.984Z,-6.10
2023-02-10T01:03:30.724Z,-6.10
2023-02-10T01:05:57.710Z,-6.10
2023-02-10T01:08:24.474Z,-6.20
2023-02-10T01:10:59.506Z,-6.20
2023-02-10T01:13:26.430Z,-6.20
2023-02-10T01:15:53.122Z,-6.30
2023-02-10T01:18:19.836Z,-6.30
2023-02-10T01:20:46.559Z,-6.30
2023-02-10T01:23:13.331Z,-6.30
2023-02-10T01:25:40.341Z,-6.30
2023-02-10T01:28:07.631Z,-6.30
2023-02-10T01:30:35.347Z,-6.30
2023-02-10T01:33:02.267Z,-6.30
2023-02-10T01:35:29.024Z,-6.30
2023-02-10T01:37:56.034Z,-6.30
2023-02-10T01:40:26.553Z,-6.30
2023-02-10T01:42:53.440Z,-6.40
2023-02-10T01:45:32.565Z,-6.50
2023-02-10T01:48:00.861Z,-6.50
2023-02-10T01:50:38.094Z,-6.50
2023-02-10T01:53:07.011Z,-6.50
2023-02-10T01:55:36.310Z,-6.50
2023-02-10T01:58:08.715Z,-6.50
2023-02-10T02:00:35.749Z,-6.50
2023-02-10T02:03:04.807Z,-6.50
2023-02-10T02:05:36.960Z,-6.50
2023-02-10T02:08:21.768Z,-6.60
2023-02-10T02:11:11.122Z,-6.60
2023-02-10T02:13:57.440Z,-6.60
2023-02-10T02:16:44.486Z,-6.60
2023-02-10T02:19:49.144Z,-6.60
2023-02-10T02:22:41.473Z,-6.60
2023-02-10T02:26:11.313Z,-6.60
2023-02-10T02:29:10.088Z,-6.70
2023-02-10T02:32:05.561Z,-6.70
2023-02-10T02:34:44.879Z,-6.80
2023-02-10T02:37:21.904Z,-6.80
2023-02-10T02:39:52.646Z,-6.80
2023-02-10T02:42:33.222Z,-6.90
2023-02-10T02:45:40.903Z,-6.90
2023-02-10T02:48:45.639Z,-6.90
2023-02-10T02:51:43.034Z,-6.90
2023-02-10T02:54:47.953Z,-6.90
2023-02-10T02:57:37.636Z,-6.90
2023-02-10T03:00:16.465Z,-6.90
2023-02-10T03:02:46.339Z,-6.90
2023-02-10T03:05:24.879Z,-6.90
2023-02-10T03:07:51.675Z,-6.90
2023-02-10T03:10:18.592Z,-6.90
2023-02-10T03:12:45.430Z,-7.00
2023-02-10T03:15:12.269Z,-7.00
2023-02-10T03:17:40.858Z,-7.00
2023-02-10T03:20:08.436Z,-7.00
2023-02-10T03:22:35.195Z,-7.00
2023-02-10T03:25:02.027Z,-7.00
2023-02-10T03:27:28.727Z,-7.10
2023-02-10T03:29:55.437Z,-7.10
2023-02-10T03:32:22.163Z,-7.00
2023-02-10T03:34:49.033Z,-7.10
2023-02-10T03:37:16.036Z,-7.10
2023-02-10T03:39:42.871Z,-7.00
2023-02-10T03:42:10.728Z,-7.10
2023-02-10T03:44:37.424Z,-7.10
2023-02-10T03:47:05.123Z,-7.10
2023-02-10T03:49:31.903Z,-7.20
2023-02-10T03:51:58.679Z,-7.20
2023-02-10T03:54:25.395Z,-7.20
2023-02-10T03:56:52.111Z,-7.30
2023-02-10T03:59:19.921Z,-7.30
2023-02-10T04:01:47.004Z,-7.30
2023-02-10T04:04:13.778Z,-7.30
2023-02-10T04:06:40.556Z,-7.30
2023-02-10T04:09:07.310Z,-7.30
2023-02-10T04:11:34.056Z,-7.30
2023-02-10T04:14:00.765Z,-7.30
2023-02-10T04:16:28.778Z,-7.30
2023-02-10T04:18:55.802Z,-7.30
2023-02-10T04:21:22.561Z,-7.40
2023-02-10T04:23:49.312Z,-7.40
2023-02-10T04:26:16.051Z,-7.40
2023-02-10T04:28:44.446Z,-7.40
2023-02-10T04:31:11.414Z,-7.30
2023-02-10T04:33:38.627Z,-7.30
2023-02-10T04:36:06.312Z,-7.40
2023-02-10T04:38:33.114Z,-7.40
2023-02-10T04:40:59.896Z,-7.40
2023-02-10T04:43:26.607Z,-7.40
2023-02-10T04:45:53.421Z,-7.40
2023-02-10T04:48:21.987Z,-7.50
2023-02-10T04:50:48.783Z,-7.50
2023-02-10T04:53:15.979Z,-7.50
2023-02-10T04:55:42.719Z,-7.50
2023-02-10T04:58:09.449Z,-7.50
2023-02-10T05:00:36.195Z,-7.50
2023-02-10T05:03:03.005Z,-7.50
2023-02-10T05:05:29.813Z,-7.50
2023-02-10T05:07:56.554Z,-7.50
2023-02-10T05:10:23.514Z,-7.50
2023-02-10T05:12:50.391Z,-7.60
2023-02-10T05:15:17.099Z,-7.60
2023-02-10T05:17:43.971Z,-7.60
2023-02-10T05:20:11.489Z,-7.70
2023-02-10T05:22:40.181Z,-7.70
2023-02-10T05:25:08.473Z,-7.60
2023-02-10T05:27:35.989Z,-7.70
2023-02-10T05:30:04.987Z,-7.70
2023-02-10T05:32:31.722Z,-7.70
2023-02-10T05:34:58.451Z,-7.70
2023-02-10T05:37:25.261Z,-7.80
2023-02-10T05:39:51.974Z,-7.80
2023-02-10T05:42:18.680Z,-7.80
2023-02-10T05:44:45.451Z,-7.80
2023-02-10T05:47:12.207Z,-7.80
2023-02-10T05:49:38.969Z,-7.80
2023-02-10T05:52:05.827Z,-7.80
2023-02-10T05:54:32.765Z,-7.80
2023-02-10T05:56:59.739Z,-7.80
2023-02-10T05:59:26.669Z,-7.80
2023-02-10T06:01:53.567Z,-7.80
2023-02-10T06:04:20.370Z,-7.90
2023-02-10T06:06:47.137Z,-7.90
2023-02-10T06:09:13.860Z,-7.90
2023-02-10T06:11:40.588Z,-7.90
2023-02-10T06:14:07.349Z,-7.90
2023-02-10T06:16:34.109Z,-7.90
2023-02-10T06:19:00.929Z,-7.10
2023-02-10T06:21:27.677Z,-7.90
2023-02-10T06:23:54.486Z,-7.90
2023-02-10T06:26:21.299Z,-7.90
2023-02-10T06:28:48.037Z,-7.90
2023-02-10T06:31:15.110Z,-7.90
2023-02-10T06:33:41.910Z,-7.90
2023-02-10T06:36:09.871Z,-7.90
2023-02-10T06:38:38.153Z,-7.90
2023-02-10T06:41:06.456Z,-7.90
2023-02-10T06:43:33.589Z,-7.90
2023-02-10T06:46:00.737Z,-7.90
2023-02-10T06:48:27.638Z,-7.90
2023-02-10T06:50:54.366Z,-7.90
2023-02-10T06:53:21.658Z,-7.90
2023-02-10T06:55:48.926Z,-7.90
2023-02-10T06:58:16.733Z,-7.80
2023-02-10T07:00:43.948Z,-7.70
2023-02-10T07:03:15.382Z,-7.70
2023-02-10T07:05:42.347Z,-7.70
2023-02-10T07:08:09.713Z,-7.60
2023-02-10T07:10:36.539Z,-7.60
2023-02-10T07:13:03.598Z,-7.50
2023-02-10T07:15:30.493Z,-7.50
2023-02-10T07:17:57.234Z,-7.40
2023-02-10T07:20:24.761Z,-7.30
2023-02-10T07:22:52.532Z,-7.20
2023-02-10T07:25:19.813Z,-7.10
2023-02-10T07:27:46.697Z,-7.10
2023-02-10T07:30:14.129Z,-6.90
2023-02-10T07:32:42.713Z,-6.80
2023-02-10T07:35:10.255Z,-6.40
2023-02-10T07:37:38.346Z,-5.60
2023-02-10T07:40:06.494Z,-4.50
2023-02-10T07:42:33.284Z,-3.30
2023-02-10T07:45:00.110Z,-2.20
2023-02-10T07:47:26.900Z,-1.30
2023-02-10T07:49:54.947Z,-0.70
2023-02-10T07:52:23.098Z,-0.70
2023-02-10T07:54:50.697Z,-1.10
2023-02-10T07:57:19.421Z,-1.60
2023-02-10T07:59:46.147Z,-2.10
2023-02-10T08:02:13.768Z,-2.40
2023-02-10T08:04:40.572Z,-2.60
2023-02-10T08:07:07.284Z,-2.60
2023-02-10T08:09:34.123Z,-2.60
2023-02-10T08:12:00.875Z,-2.50
2023-02-10T08:14:27.701Z,-2.50
2023-02-10T08:16:54.537Z,-2.30
2023-02-10T08:19:21.313Z,-2.00
2023-02-10T08:21:48.078Z,-1.80
2023-02-10T08:24:15.021Z,-1.70
2023-02-10T08:26:42.910Z,-1.70
2023-02-10T08:29:10.284Z,-1.60
2023-02-10T08:31:37.143Z,-1.40
2023-02-10T08:34:04.367Z,-1.30
2023-02-10T08:36:31.882Z,-1.30
2023-02-10T08:38:58.821Z,-1.40
2023-02-10T08:41:26.512Z,-1.40
2023-02-10T08:43:53.335Z,-1.60
2023-02-10T08:46:20.131Z,-1.70
2023-02-10T08:48:46.956Z,-1.80
2023-02-10T08:51:16.044Z,-1.80
2023-02-10T08:53:42.941Z,-1.80
2023-02-10T08:56:14.308Z,-1.60
2023-02-10T08:58:41.219Z,-1.30
2023-02-10T09:01:24.670Z,-1.10
2023-02-10T09:03:52.848Z,-1.00
2023-02-10T09:06:24.677Z,-0.90
2023-02-10T09:08:53.377Z,-0.70
2023-02-10T09:11:24.230Z,-0.60
2023-02-10T09:13:52.727Z,-0.40
2023-02-10T09:16:20.972Z,-0.30
2023-02-10T09:18:47.792Z,-0.30
2023-02-10T09:21:14.752Z,-0.20
2023-02-10T09:23:42.955Z,-0.10
2023-02-10T09:26:10.157Z,0.00
2023-02-10T09:28:37.168Z,0.20
2023-02-10T09:31:12.986Z,0.50
2023-02-10T09:33:40.369Z,0.60
2023-02-10T09:36:11.067Z,0.70
2023-02-10T09:38:39.069Z,0.60
2023-02-10T09:41:36.617Z,0.80
2023-02-10T09:44:23.255Z,1.00
2023-02-10T09:47:00.013Z,1.30
2023-02-10T09:49:48.365Z,1.40
2023-02-10T09:52:23.849Z,1.30
2023-02-10T09:54:53.177Z,1.00
2023-02-10T09:57:31.411Z,1.00
2023-02-10T10:00:00.726Z,1.10
2023-02-10T10:02:39.729Z,1.10
2023-02-10T10:05:24.717Z,1.10
2023-02-10T10:07:54.680Z,1.10
2023-02-10T10:10:28.005Z,1.30
2023-02-10T10:12:55.756Z,1.60
2023-02-10T10:15:31.241Z,1.80
2023-02-10T10:18:14.766Z,2.00
2023-02-10T10:21:06.052Z,2.20
2023-02-10T10:24:07.892Z,2.50
2023-02-10T10:26:58.258Z,2.80
2023-02-10T10:29:46.021Z,3.10
2023-02-10T10:32:19.124Z,3.40
2023-02-10T10:34:57.076Z,3.50
2023-02-10T10:37:26.381Z,3.70
2023-02-10T10:40:00.748Z,3.80
2023-02-10T10:42:50.886Z,3.80
2023-02-10T10:45:25.739Z,4.00
2023-02-10T10:48:16.669Z,4.30
2023-02-10T10:50:44.119Z,4.60
2023-02-10T10:53:31.252Z,4.70
2023-02-10T10:56:02.356Z,4.60
2023-02-10T10:58:41.295Z,4.50
2023-02-10T11:01:08.144Z,4.70
2023-02-10T11:03:35.351Z,4.90
2023-02-10T11:06:14.449Z,5.30
2023-02-10T11:08:55.573Z,5.60
2023-02-10T11:11:40.896Z,5.60
2023-02-10T11:14:26.417Z,5.90
2023-02-10T11:16:58.482Z,6.50
2023-02-10T11:19:32.978Z,7.00
2023-02-10T11:22:16.878Z,7.00
2023-02-10T11:25:01.749Z,6.80
2023-02-10T11:27:29.142Z,6.80
2023-02-10T11:29:59.253Z,6.80
2023-02-10T11:32:37.215Z,6.80
2023-02-10T11:35:15.784Z,7.00
2023-02-10T11:37:44.435Z,7.10
2023-02-10T11:40:23.311Z,7.30
2023-02-10T11:42:53.731Z,7.20
2023-02-10T11:45:32.676Z,6.80
2023-02-10T11:48:05.684Z,6.60
2023-02-10T11:50:36.295Z,6.40
2023-02-10T11:53:03.151Z,6.70
2023-02-10T11:56:02.768Z,6.80
2023-02-10T11:59:00.537Z,6.60
2023-02-10T12:01:41.931Z,6.80
2023-02-10T12:04:39.670Z,7.10
2023-02-10T12:07:21.392Z,7.60
2023-02-10T12:09:56.548Z,8.10
2023-02-10T12:12:52.574Z,8.30
2023-02-10T12:16:01.644Z,8.80
2023-02-10T12:18:59.036Z,8.70
2023-02-10T12:21:50.609Z,8.80
2023-02-10T12:24:34.934Z,8.40
2023-02-10T12:27:17.479Z,8.20
2023-02-10T12:30:03.470Z,8.10
2023-02-10T12:33:34.972Z,7.90
2023-02-10T12:36:18.048Z,7.70
2023-02-10T12:39:23.899Z,7.50
2023-02-10T12:42:12.698Z,7.40
2023-02-10T12:45:26.149Z,7.20
2023-02-10T12:48:21.888Z,7.30
2023-02-10T12:51:27.474Z,7.40
2023-02-10T12:54:07.930Z,7.40
2023-02-10T12:56:46.364Z,7.50
2023-02-10T12:59:22.030Z,7.40
2023-02-10T13:02:06.073Z,7.60
2023-02-10T13:04:46.201Z,7.60
2023-02-10T13:07:48.925Z,7.60
2023-02-10T13:10:41.400Z,7.60
2023-02-10T13:13:30.864Z,7.40
2023-02-10T13:16:04.524Z,7.30
2023-02-10T13:18:36.863Z,7.30
2023-02-10T13:21:19.972Z,7.30
2023-02-10T13:23:56.591Z,7.30
2023-02-10T13:26:56.179Z,7.20
2023-02-10T13:30:07.750Z,7.30
2023-02-10T13:33:12.689Z,7.70
2023-02-10T13:35:43.794Z,8.50
2023-02-10T13:38:24.577Z,9.10
2023-02-10T13:41:16.146Z,9.50
2023-02-10T13:43:46.039Z,9.70
2023-02-10T13:46:31.602Z,10.30
2023-02-10T13:49:02.048Z,10.60
2023-02-10T13:51:38.634Z,10.40
2023-02-10T13:54:06.150Z,10.00
2023-02-10T13:56:35.216Z,9.60
2023-02-10T13:59:27.673Z,9.20
2023-02-10T14:02:22.776Z,9.30
2023-02-10T14:04:55.265Z,9.90
2023-02-10T14:07:32.498Z,10.90
2023-02-10T14:10:20.334Z,11.00
2023-02-10T14:13:01.416Z,12.70
2023-02-10T14:15:40.788Z,15.00
2023-02-10T14:18:26.692Z,16.30
2023-02-10T14:21:01.910Z,17.70
2023-02-10T14:23:33.018Z,18.80
2023-02-10T14:26:05.199Z,19.30
2023-02-10T14:28:39.452Z,19.00
2023-02-10T14:31:20.792Z,18.50
2023-02-10T14:34:05.100Z,17.70
2023-02-10T14:36:32.548Z,18.30
2023-02-10T14:39:05.782Z,19.20
2023-02-10T14:41:34.092Z,18.20
2023-02-10T14:44:00.823Z,17.80
2023-02-10T14:46:31.887Z,17.80
2023-02-10T14:49:10.144Z,17.30
2023-02-10T14:51:45.484Z,17.30
2023-02-10T14:54:24.428Z,18.00
2023-02-10T14:57:14.356Z,17.30
2023-02-10T14:59:41.043Z,16.30
2023-02-10T15:02:26.759Z,15.00
2023-02-10T15:05:00.345Z,13.50
2023-02-10T15:07:38.633Z,12.20
2023-02-10T15:10:33.640Z,11.20
2023-02-10T15:13:01.551Z,10.10
2023-02-10T15:15:36.774Z,9.10
2023-02-10T15:18:29.338Z,8.30
2023-02-10T15:21:00.898Z,7.80
2023-02-10T15:23:33.147Z,7.20
2023-02-10T15:26:21.129Z,6.80
2023-02-10T15:29:10.235Z,6.50
2023-02-10T15:31:37.475Z,6.20
2023-02-10T15:34:29.618Z,6.00
2023-02-10T15:37:05.720Z,5.80
2023-02-10T15:39:40.092Z,5.60
2023-02-10T15:42:12.966Z,5.50
2023-02-10T15:44:42.329Z,5.40
2023-02-10T15:47:24.072Z,5.30
2023-02-10T15:49:58.437Z,5.10
2023-02-10T15:52:39.001Z,4.90
2023-02-10T15:55:33.339Z,4.80
2023-02-10T15:58:00.064Z,4.70
2023-02-10T16:00:33.440Z,4.40
2023-02-10T16:03:01.822Z,4.30
2023-02-10T16:05:29.745Z,4.20
2023-02-10T16:08:24.726Z,4.00
2023-02-10T16:10:51.754Z,3.90
2023-02-10T16:13:18.668Z,3.70
2023-02-10T16:15:51.098Z,3.50
2023-02-10T16:18:23.022Z,3.30
2023-02-10T16:20:51.525Z,3.10
2023-02-10T16:23:20.664Z,3.00
2023-02-10T16:25:50.110Z,2.80
2023-02-10T16:28:19.389Z,2.70
2023-02-10T16:30:47.652Z,2.50
2023-02-10T16:33:15.889Z,2.40
2023-02-10T16:35:43.168Z,2.20
2023-02-10T16:38:17.680Z,2.10
2023-02-10T16:40:44.821Z,2.00
2023-02-10T16:43:11.560Z,1.90
2023-02-10T16:45:38.556Z,1.70
2023-02-10T16:48:05.848Z,1.60
2023-02-10T16:50:40.475Z,1.50
2023-02-10T16:53:09.686Z,1.50
2023-02-10T16:55:39.962Z,1.40
2023-02-10T16:58:12.886Z,1.30
2023-02-10T17:00:39.658Z,1.20
2023-02-10T17:03:07.188Z,1.20
2023-02-10T17:05:35.004Z,1.20
2023-02-10T17:08:01.835Z,1.10
2023-02-10T17:10:30.849Z,1.00
2023-02-10T17:12:57.582Z,0.90
2023-02-10T17:15:24.496Z,0.90
2023-02-10T17:17:51.529Z,0.80
2023-02-10T17:20:27.353Z,0.70
2023-02-10T17:23:00.320Z,0.60
2023-02-10T17:25:27.490Z,0.60
2023-02-10T17:27:54.453Z,0.50
2023-02-10T17:30:24.498Z,0.50
2023-02-10T17:32:51.928Z,0.40
2023-02-10T17:35:22.603Z,0.40
2023-02-10T17:37:54.306Z,0.30
2023-02-10T17:40:28.559Z,0.30
2023-02-10T17:42:55.284Z,0.30
2023-02-10T17:45:22.044Z,0.20
2023-02-10T17:47:48.874Z,0.20
2023-02-10T17:50:16.933Z,0.20
2023-02-10T17:52:43.668Z,0.20
2023-02-10T17:55:21.715Z,0.10
2023-02-10T17:57:49.467Z,0.10
2023-02-10T18:00:17.672Z,0.00
2023-02-10T18:02:44.410Z,0.00
2023-02-10T18:05:11.654Z,0.00
2023-02-10T18:07:38.607Z,-0.10
2023-02-10T18:10:06.990Z,-0.10
2023-02-10T18:12:34.103Z,-0.20
2023-02-10T18:15:00.844Z,-0.20
2023-02-10T18:17:27.653Z,-0.30
2023-02-10T18:19:54.480Z,-0.30
2023-02-10T18:22:21.419Z,-0.30
2023-02-10T18:24:48.170Z,-0.40
2023-02-10T18:27:14.956Z,-0.40
2023-02-10T18:29:44.429Z,-0.40
2023-02-10T18:32:11.244Z,-0.40
2023-02-10T18:34:38.789Z,-0.40
2023-02-10T18:37:05.670Z,-0.40
2023-02-10T18:39:33.867Z,-0.50
2023-02-10T18:42:00.986Z,-0.60
2023-02-10T18:44:27.871Z,-0.60
2023-02-10T18:46:54.608Z,-0.60
2023-02-10T18:49:21.467Z,-0.60
2023-02-10T18:51:53.547Z,-0.60
2023-02-10T18:54:22.819Z,-0.60
2023-02-10T18:56:50.110Z,-0.60
2023-02-10T18:59:16.849Z,-0.60
2023-02-10T19:01:43.724Z,-0.60
2023-02-10T19:04:10.517Z,-0.70
2023-02-10T19:06:38.105Z,-0.70
2023-02-10T19:09:04.870Z,-0.70
2023-02-10T19:11:31.609Z,-0.60
2023-02-10T19:13:58.407Z,-0.70
2023-02-10T19:16:25.466Z,-0.60
2023-02-10T19:18:52.240Z,-0.60
2023-02-10T19:21:20.510Z,-0.70
2023-02-10T19:23:47.571Z,-0.70
2023-02-10T19:26:14.388Z,-0.70
2023-02-10T19:28:42.532Z,-0.70
2023-02-10T19:31:12.392Z,-0.70
2023-02-10T19:33:39.968Z,-0.70
2023-02-10T19:36:11.739Z,-0.70
2023-02-10T19:38:38.641Z,-0.70
2023-02-10T19:41:16.618Z,-0.80
2023-02-10T19:43:45.077Z,-0.80
2023-02-10T19:46:13.012Z,-0.80
2023-02-10T19:48:39.962Z,-0.90
2023-02-10T19:51:14.347Z,-0.90
2023-02-10T19:53:41.865Z,-1.00
2023-02-10T19:56:09.988Z,-1.10
2023-02-10T19:58:38.128Z,-1.10
2023-02-10T20:01:16.266Z,-1.20
2023-02-10T20:03:48.998Z,-1.20
2023-02-10T20:06:21.864Z,-1.30
2023-02-10T20:08:49.390Z,-1.30
2023-02-10T20:11:18.375Z,-1.40
2023-02-10T20:13:46.389Z,-1.40
2023-02-10T20:16:14.205Z,-1.40
2023-02-10T20:18:41.986Z,-1.50
2023-02-10T20:21:10.121Z,-1.50
2023-02-10T20:23:40.795Z,-1.60
2023-02-10T20:26:12.041Z,-1.60
2023-02-10T20:28:38.931Z,-1.70
2023-02-10T20:31:06.566Z,-1.70
2023-02-10T20:33:33.435Z,-1.70
2023-02-10T20:36:03.211Z,-1.70
2023-02-10T20:38:30.074Z,-1.70
2023-02-10T20:41:08.786Z,-1.80
2023-02-10T20:43:37.273Z,-1.80
2023-02-10T20:46:07.140Z,-1.80
2023-02-10T20:48:35.095Z,-1.90
2023-02-10T20:51:05.644Z,-1.90
2023-02-10T20:53:32.904Z,-1.90
2023-02-10T20:56:00.057Z,-1.90
2023-02-10T20:58:30.426Z,-2.00
2023-02-10T21:01:00.164Z,-2.00
2023-02-10T21:03:28.064Z,-2.00
2023-02-10T21:06:13.583Z,-2.00
2023-02-10T21:08:42.583Z,-2.10
2023-02-10T21:11:12.476Z,-2.10
2023-02-10T21:13:39.790Z,-2.10
2023-02-10T21:16:09.735Z,-2.10
2023-02-10T21:18:37.062Z,-2.10
2023-02-10T21:21:07.210Z,-2.10
2023-02-10T21:23:35.114Z,-2.10
2023-02-10T21:26:02.515Z,-2.20
2023-02-10T21:28:30.324Z,-2.20
2023-02-10T21:30:57.503Z,-2.20
2023-02-10T21:33:24.861Z,-2.20
2023-02-10T21:35:56.699Z,-2.20
2023-02-10T21:38:24.666Z,-2.30
2023-02-10T21:41:01.334Z,-2.30
2023-02-10T21:43:28.023Z,-2.30
2023-02-10T21:45:54.794Z,-2.30
2023-02-10T21:48:21.581Z,-2.30
2023-02-10T21:50:51.475Z,-2.30
2023-02-10T21:53:18.550Z,-2.40
2023-02-10T21:55:45.256Z,-2.40
2023-02-10T21:58:12.097Z,-2.50
2023-02-10T22:00:38.951Z,-2.50
2023-02-10T22:03:05.839Z,-2.50
2023-02-10T22:05:32.666Z,-2.60
2023-02-10T22:07:59.476Z,-2.60
2023-02-10T22:10:26.225Z,-2.60
2023-02-10T22:12:52.963Z,-2.60
2023-02-10T22:15:19.929Z,-2.70
2023-02-10T22:17:46.713Z,-2.70
2023-02-10T22:20:13.436Z,-2.70
2023-02-10T22:22:40.219Z,-2.80
2023-02-10T22:25:07.144Z,-2.80
2023-02-10T22:27:34.519Z,-2.70
2023-02-10T22:30:01.375Z,-2.80
2023-02-10T22:32:28.174Z,-2.80
2023-02-10T22:34:54.924Z,-2.80
2023-02-10T22:37:21.677Z,-2.80
2023-02-10T22:39:48.623Z,-2.80
2023-02-10T22:42:15.733Z,-2.90
2023-02-10T22:44:42.799Z,-2.90
2023-02-10T22:47:09.694Z,-2.90
2023-02-10T22:49:37.709Z,-2.90
2023-02-10T22:52:05.254Z,-2.90
2023-02-10T22:54:32.041Z,-3.00
2023-02-10T22:56:58.756Z,-3.00
2023-02-10T22:59:25.910Z,-3.00
2023-02-10T23:01:55.947Z,-3.10
2023-02-10T23:04:24.219Z,-3.00
2023-02-10T23:06:51.622Z,-3.00
2023-02-10T23:09:18.438Z,-3.00
2023-02-10T23:11:51.755Z,-3.00
2023-02-10T23:14:19.797Z,-3.00
2023-02-10T23:16:52.900Z,-3.10
2023-02-10T23:19:29.051Z,-3.10
2023-02-10T23:21:57.268Z,-3.10
2023-02-10T23:24:24.008Z,-3.10
2023-02-10T23:26:50.761Z,-3.20
2023-02-10T23:29:18.244Z,-3.20
2023-02-10T23:31:46.193Z,-3.20
2023-02-10T23:34:13.804Z,-3.20
2023-02-10T23:36:41.450Z,-3.20
2023-02-10T23:39:08.496Z,-3.30
2023-02-10T23:41:37.562Z,-3.30
2023-02-10T23:44:06.755Z,-3.30
2023-02-10T23:46:34.593Z,-3.30
2023-02-10T23:49:01.362Z,-3.30
2023-02-10T23:51:28.461Z,-3.30
2023-02-10T23:53:55.504Z,-3.40
2023-02-10T23:56:24.126Z,-3.40
2023-02-10T23:58:52.172Z,-3.40
